Terminal Aerodrome Forecast
Issued by NWS

Home | Current Version | Previous Version | Text Only | Print | Product List | Glossary On
Versions: 1 2 3 4 5 6 7 8 9 10 11 12 13 14 15 16 17 18 19 20
000
FTUS43 KPAH 200520
TAFOWB
TAF
KOWB 200520Z 2006/2106 VRB04KT 3SM -SHRA BR OVC006
      TEMPO 2006/2010 1SM SHRA OVC002
     FM201000 21005KT 2SM BR OVC005
     FM201800 21005KT 6SM BR OVC010
     FM210300 18005KT 6SM BR OVC012=

USA.gov is the U.S. government's official web portal to all federal, state and local government web resources and services.